sensor_id;sensor_type;location;lat;lon;timestamp;P1;durP1;ratioP1;P2;durP2;ratioP2
19617;SDS011;9956;51.006;13.670;2023-07-31T00:00:18;3.85;;;1.50;;
19617;SDS011;9956;51.006;13.670;2023-07-31T00:05:18;4.28;;;1.95;;
19617;SDS011;9956;51.006;13.670;2023-07-31T00:10:19;4.80;;;1.40;;
19617;SDS011;9956;51.006;13.670;2023-07-31T00:15:19;3.20;;;1.63;;
19617;SDS011;9956;51.006;13.670;2023-07-31T00:20:20;3.85;;;1.63;;
19617;SDS011;9956;51.006;13.670;2023-07-31T00:25:21;2.45;;;1.30;;
19617;SDS011;9956;51.006;13.670;2023-07-31T00:30:21;3.05;;;1.40;;
19617;SDS011;9956;51.006;13.670;2023-07-31T00:35:22;3.20;;;1.63;;
19617;SDS011;9956;51.006;13.670;2023-07-31T00:40:23;3.25;;;1.48;;
19617;SDS011;9956;51.006;13.670;2023-07-31T00:45:23;3.45;;;1.65;;
19617;SDS011;9956;51.006;13.670;2023-07-31T00:50:24;6.55;;;1.80;;
19617;SDS011;9956;51.006;13.670;2023-07-31T00:55:25;4.07;;;2.00;;
19617;SDS011;9956;51.006;13.670;2023-07-31T01:00:26;5.25;;;1.90;;
19617;SDS011;9956;51.006;13.670;2023-07-31T01:05:33;2.88;;;1.58;;
19617;SDS011;9956;51.006;13.670;2023-07-31T01:10:43;4.25;;;1.58;;
19617;SDS011;9956;51.006;13.670;2023-07-31T01:15:47;2.83;;;1.58;;
19617;SDS011;9956;51.006;13.670;2023-07-31T01:20:51;2.80;;;1.48;;
19617;SDS011;9956;51.006;13.670;2023-07-31T01:31:22;5.43;;;1.73;;
19617;SDS011;9956;51.006;13.670;2023-07-31T01:36:24;4.68;;;1.95;;
19617;SDS011;9956;51.006;13.670;2023-07-31T01:41:26;3.17;;;2.00;;
19617;SDS011;9956;51.006;13.670;2023-07-31T01:46:26;6.57;;;1.83;;
19617;SDS011;9956;51.006;13.670;2023-07-31T01:51:27;3.33;;;1.85;;
19617;SDS011;9956;51.006;13.670;2023-07-31T01:56:27;5.93;;;1.98;;
19617;SDS011;9956;51.006;13.670;2023-07-31T02:01:28;3.35;;;1.70;;
19617;SDS011;9956;51.006;13.670;2023-07-31T02:06:28;7.22;;;1.67;;
19617;SDS011;9956;51.006;13.670;2023-07-31T02:11:29;4.72;;;1.90;;
19617;SDS011;9956;51.006;13.670;2023-07-31T02:16:29;5.88;;;2.00;;
19617;SDS011;9956;51.006;13.670;2023-07-31T02:21:30;3.92;;;1.90;;
19617;SDS011;9956;51.006;13.670;2023-07-31T02:26:30;4.15;;;1.95;;
19617;SDS011;9956;51.006;13.670;2023-07-31T02:31:31;3.80;;;1.35;;
19617;SDS011;9956;51.006;13.670;2023-07-31T02:36:31;4.47;;;1.80;;
19617;SDS011;9956;51.006;13.670;2023-07-31T02:41:31;2.92;;;1.58;;
19617;SDS011;9956;51.006;13.670;2023-07-31T02:46:32;3.30;;;1.40;;
19617;SDS011;9956;51.006;13.670;2023-07-31T02:51:32;3.15;;;1.65;;
19617;SDS011;9956;51.006;13.670;2023-07-31T02:56:33;2.72;;;1.40;;
19617;SDS011;9956;51.006;13.670;2023-07-31T03:01:33;5.13;;;1.90;;
19617;SDS011;9956;51.006;13.670;2023-07-31T03:06:34;4.72;;;1.58;;
19617;SDS011;9956;51.006;13.670;2023-07-31T03:11:34;4.43;;;1.58;;
19617;SDS011;9956;51.006;13.670;2023-07-31T03:16:35;7.78;;;1.55;;
19617;SDS011;9956;51.006;13.670;2023-07-31T03:21:35;6.18;;;1.90;;
19617;SDS011;9956;51.006;13.670;2023-07-31T03:26:36;4.50;;;2.03;;
19617;SDS011;9956;51.006;13.670;2023-07-31T03:31:36;3.88;;;1.80;;
19617;SDS011;9956;51.006;13.670;2023-07-31T03:36:37;4.20;;;1.80;;
19617;SDS011;9956;51.006;13.670;2023-07-31T03:41:38;2.83;;;1.67;;
19617;SDS011;9956;51.006;13.670;2023-07-31T03:46:39;3.38;;;2.10;;
19617;SDS011;9956;51.006;13.670;2023-07-31T03:51:40;3.63;;;1.90;;
19617;SDS011;9956;51.006;13.670;2023-07-31T03:56:41;5.35;;;2.03;;
19617;SDS011;9956;51.006;13.670;2023-07-31T04:01:42;5.07;;;2.00;;
19617;SDS011;9956;51.006;13.670;2023-07-31T04:06:42;5.18;;;2.20;;
19617;SDS011;9956;51.006;13.670;2023-07-31T04:11:43;5.90;;;2.65;;
19617;SDS011;9956;51.006;13.670;2023-07-31T04:16:43;4.75;;;2.70;;
19617;SDS011;9956;51.006;13.670;2023-07-31T04:21:44;5.60;;;2.65;;
19617;SDS011;9956;51.006;13.670;2023-07-31T04:26:44;5.18;;;2.53;;
19617;SDS011;9956;51.006;13.670;2023-07-31T04:31:45;4.72;;;3.45;;
19617;SDS011;9956;51.006;13.670;2023-07-31T04:36:45;8.80;;;4.80;;
19617;SDS011;9956;51.006;13.670;2023-07-31T04:41:46;5.10;;;4.10;;
19617;SDS011;9956;51.006;13.670;2023-07-31T04:46:46;9.43;;;4.70;;
19617;SDS011;9956;51.006;13.670;2023-07-31T04:51:46;8.52;;;5.10;;
19617;SDS011;9956;51.006;13.670;2023-07-31T04:56:47;8.85;;;4.43;;
19617;SDS011;9956;51.006;13.670;2023-07-31T05:01:47;7.20;;;4.78;;
19617;SDS011;9956;51.006;13.670;2023-07-31T05:06:48;10.02;;;5.18;;
19617;SDS011;9956;51.006;13.670;2023-07-31T05:11:48;8.40;;;3.80;;
19617;SDS011;9956;51.006;13.670;2023-07-31T05:16:49;6.72;;;3.53;;
19617;SDS011;9956;51.006;13.670;2023-07-31T05:21:49;6.03;;;3.38;;
19617;SDS011;9956;51.006;13.670;2023-07-31T05:26:50;4.82;;;2.75;;
19617;SDS011;9956;51.006;13.670;2023-07-31T05:31:50;6.28;;;2.53;;
19617;SDS011;9956;51.006;13.670;2023-07-31T05:36:51;6.15;;;2.45;;
19617;SDS011;9956;51.006;13.670;2023-07-31T05:41:51;4.97;;;2.20;;
19617;SDS011;9956;51.006;13.670;2023-07-31T05:46:52;6.22;;;2.40;;
19617;SDS011;9956;51.006;13.670;2023-07-31T05:51:52;4.07;;;2.28;;
19617;SDS011;9956;51.006;13.670;2023-07-31T05:56:53;3.63;;;2.17;;
19617;SDS011;9956;51.006;13.670;2023-07-31T06:01:53;4.47;;;2.05;;
19617;SDS011;9956;51.006;13.670;2023-07-31T06:06:53;6.13;;;2.22;;
19617;SDS011;9956;51.006;13.670;2023-07-31T06:11:54;5.05;;;2.45;;
19617;SDS011;9956;51.006;13.670;2023-07-31T06:16:54;4.95;;;2.15;;
19617;SDS011;9956;51.006;13.670;2023-07-31T06:21:55;4.45;;;2.67;;
19617;SDS011;9956;51.006;13.670;2023-07-31T06:26:55;6.95;;;2.45;;
19617;SDS011;9956;51.006;13.670;2023-07-31T06:31:57;3.75;;;2.40;;
19617;SDS011;9956;51.006;13.670;2023-07-31T06:36:58;6.43;;;2.42;;
19617;SDS011;9956;51.006;13.670;2023-07-31T06:41:58;5.25;;;2.47;;
19617;SDS011;9956;51.006;13.670;2023-07-31T06:46:59;6.22;;;2.35;;
19617;SDS011;9956;51.006;13.670;2023-07-31T06:51:59;3.22;;;2.10;;
19617;SDS011;9956;51.006;13.670;2023-07-31T06:57:00;4.85;;;1.92;;
19617;SDS011;9956;51.006;13.670;2023-07-31T07:02:00;3.08;;;1.83;;
19617;SDS011;9956;51.006;13.670;2023-07-31T07:07:01;2.90;;;2.17;;
19617;SDS011;9956;51.006;13.670;2023-07-31T07:12:01;6.00;;;2.40;;
19617;SDS011;9956;51.006;13.670;2023-07-31T07:17:02;4.80;;;2.70;;
19617;SDS011;9956;51.006;13.670;2023-07-31T07:22:02;4.90;;;1.90;;
19617;SDS011;9956;51.006;13.670;2023-07-31T07:27:03;4.00;;;2.20;;
19617;SDS011;9956;51.006;13.670;2023-07-31T07:32:04;7.30;;;2.83;;
19617;SDS011;9956;51.006;13.670;2023-07-31T07:37:05;6.25;;;3.42;;
19617;SDS011;9956;51.006;13.670;2023-07-31T07:42:06;5.22;;;3.08;;
19617;SDS011;9956;51.006;13.670;2023-07-31T07:47:06;4.53;;;3.08;;
19617;SDS011;9956;51.006;13.670;2023-07-31T07:52:07;5.53;;;2.47;;
19617;SDS011;9956;51.006;13.670;2023-07-31T07:57:07;4.55;;;2.50;;
19617;SDS011;9956;51.006;13.670;2023-07-31T08:02:08;4.90;;;2.30;;
19617;SDS011;9956;51.006;13.670;2023-07-31T08:07:10;4.68;;;2.03;;
19617;SDS011;9956;51.006;13.670;2023-07-31T08:12:11;5.95;;;2.35;;
19617;SDS011;9956;51.006;13.670;2023-07-31T08:17:11;4.40;;;2.30;;
19617;SDS011;9956;51.006;13.670;2023-07-31T08:22:12;3.22;;;2.00;;
19617;SDS011;9956;51.006;13.670;2023-07-31T08:27:12;3.22;;;2.08;;
19617;SDS011;9956;51.006;13.670;2023-07-31T08:32:13;4.38;;;2.00;;
19617;SDS011;9956;51.006;13.670;2023-07-31T08:37:13;3.38;;;2.20;;
19617;SDS011;9956;51.006;13.670;2023-07-31T08:42:14;3.25;;;1.92;;
19617;SDS011;9956;51.006;13.670;2023-07-31T08:47:14;3.70;;;2.30;;
19617;SDS011;9956;51.006;13.670;2023-07-31T08:52:16;5.00;;;2.47;;
19617;SDS011;9956;51.006;13.670;2023-07-31T09:02:20;5.35;;;2.88;;
19617;SDS011;9956;51.006;13.670;2023-07-31T09:07:21;5.35;;;2.67;;
19617;SDS011;9956;51.006;13.670;2023-07-31T09:12:22;5.20;;;2.50;;
19617;SDS011;9956;51.006;13.670;2023-07-31T09:17:32;5.00;;;2.50;;
19617;SDS011;9956;51.006;13.670;2023-07-31T09:22:34;4.13;;;2.42;;
19617;SDS011;9956;51.006;13.670;2023-07-31T09:27:46;5.45;;;2.65;;
19617;SDS011;9956;51.006;13.670;2023-07-31T09:33:03;2.92;;;2.20;;
19617;SDS011;9956;51.006;13.670;2023-07-31T09:38:07;2.60;;;1.90;;
19617;SDS011;9956;51.006;13.670;2023-07-31T09:43:10;4.30;;;2.20;;
19617;SDS011;9956;51.006;13.670;2023-07-31T09:48:13;4.65;;;2.92;;
19617;SDS011;9956;51.006;13.670;2023-07-31T09:53:18;3.13;;;2.03;;
19617;SDS011;9956;51.006;13.670;2023-07-31T09:58:18;3.47;;;2.55;;
19617;SDS011;9956;51.006;13.670;2023-07-31T10:03:20;4.10;;;2.45;;
19617;SDS011;9956;51.006;13.670;2023-07-31T10:08:21;3.45;;;2.15;;
19617;SDS011;9956;51.006;13.670;2023-07-31T10:13:26;5.20;;;2.60;;
19617;SDS011;9956;51.006;13.670;2023-07-31T10:18:28;4.10;;;2.72;;
19617;SDS011;9956;51.006;13.670;2023-07-31T10:23:28;2.63;;;2.28;;
19617;SDS011;9956;51.006;13.670;2023-07-31T10:28:29;5.80;;;2.40;;
19617;SDS011;9956;51.006;13.670;2023-07-31T10:33:29;4.25;;;2.38;;
19617;SDS011;9956;51.006;13.670;2023-07-31T10:38:30;4.60;;;2.42;;
19617;SDS011;9956;51.006;13.670;2023-07-31T10:43:31;3.95;;;2.20;;
19617;SDS011;9956;51.006;13.670;2023-07-31T10:48:33;4.30;;;2.33;;
19617;SDS011;9956;51.006;13.670;2023-07-31T10:53:34;3.17;;;2.20;;
19617;SDS011;9956;51.006;13.670;2023-07-31T10:58:36;3.05;;;1.98;;
19617;SDS011;9956;51.006;13.670;2023-07-31T11:08:44;2.67;;;2.10;;
19617;SDS011;9956;51.006;13.670;2023-07-31T11:13:47;2.75;;;2.08;;
19617;SDS011;9956;51.006;13.670;2023-07-31T11:18:50;2.25;;;1.80;;
19617;SDS011;9956;51.006;13.670;2023-07-31T11:23:52;3.90;;;2.25;;
19617;SDS011;9956;51.006;13.670;2023-07-31T11:28:53;2.38;;;1.65;;
19617;SDS011;9956;51.006;13.670;2023-07-31T11:34:06;2.70;;;1.80;;
19617;SDS011;9956;51.006;13.670;2023-07-31T11:39:08;3.42;;;1.95;;
19617;SDS011;9956;51.006;13.670;2023-07-31T11:44:10;3.85;;;2.30;;
19617;SDS011;9956;51.006;13.670;2023-07-31T11:49:10;2.97;;;1.90;;
19617;SDS011;9956;51.006;13.670;2023-07-31T11:54:11;3.10;;;1.48;;
19617;SDS011;9956;51.006;13.670;2023-07-31T11:59:14;2.58;;;1.67;;
19617;SDS011;9956;51.006;13.670;2023-07-31T12:04:14;4.47;;;1.63;;
19617;SDS011;9956;51.006;13.670;2023-07-31T12:09:15;2.85;;;1.38;;
19617;SDS011;9956;51.006;13.670;2023-07-31T12:14:22;4.03;;;1.60;;
19617;SDS011;9956;51.006;13.670;2023-07-31T12:19:27;4.55;;;1.90;;
19617;SDS011;9956;51.006;13.670;2023-07-31T12:24:29;4.25;;;1.90;;
19617;SDS011;9956;51.006;13.670;2023-07-31T12:29:33;3.47;;;2.03;;
19617;SDS011;9956;51.006;13.670;2023-07-31T12:34:41;4.53;;;2.05;;
19617;SDS011;9956;51.006;13.670;2023-07-31T12:39:42;2.70;;;1.83;;
19617;SDS011;9956;51.006;13.670;2023-07-31T12:44:43;3.60;;;1.80;;
19617;SDS011;9956;51.006;13.670;2023-07-31T12:49:43;4.68;;;1.85;;
19617;SDS011;9956;51.006;13.670;2023-07-31T12:54:43;3.28;;;2.03;;
19617;SDS011;9956;51.006;13.670;2023-07-31T12:59:44;4.68;;;2.47;;
19617;SDS011;9956;51.006;13.670;2023-07-31T13:04:44;3.28;;;1.95;;
19617;SDS011;9956;51.006;13.670;2023-07-31T13:09:45;3.55;;;2.22;;
19617;SDS011;9956;51.006;13.670;2023-07-31T13:14:45;4.88;;;2.03;;
19617;SDS011;9956;51.006;13.670;2023-07-31T13:19:46;3.03;;;1.90;;
19617;SDS011;9956;51.006;13.670;2023-07-31T13:24:46;2.85;;;2.00;;
19617;SDS011;9956;51.006;13.670;2023-07-31T13:29:48;2.63;;;1.70;;
19617;SDS011;9956;51.006;13.670;2023-07-31T13:34:49;5.28;;;2.17;;
19617;SDS011;9956;51.006;13.670;2023-07-31T13:39:50;3.75;;;1.95;;
19617;SDS011;9956;51.006;13.670;2023-07-31T13:44:50;5.28;;;2.10;;
19617;SDS011;9956;51.006;13.670;2023-07-31T13:49:50;3.78;;;2.00;;
19617;SDS011;9956;51.006;13.670;2023-07-31T13:54:51;3.05;;;1.90;;
19617;SDS011;9956;51.006;13.670;2023-07-31T13:59:51;4.57;;;2.13;;
19617;SDS011;9956;51.006;13.670;2023-07-31T14:04:52;4.53;;;2.25;;
19617;SDS011;9956;51.006;13.670;2023-07-31T14:09:52;4.78;;;2.30;;
19617;SDS011;9956;51.006;13.670;2023-07-31T14:14:53;2.85;;;2.05;;
19617;SDS011;9956;51.006;13.670;2023-07-31T14:19:53;3.38;;;1.90;;
19617;SDS011;9956;51.006;13.670;2023-07-31T14:24:53;3.60;;;2.20;;
19617;SDS011;9956;51.006;13.670;2023-07-31T14:29:54;3.28;;;1.88;;
19617;SDS011;9956;51.006;13.670;2023-07-31T14:34:54;4.18;;;2.28;;
19617;SDS011;9956;51.006;13.670;2023-07-31T14:39:55;6.18;;;2.90;;
19617;SDS011;9956;51.006;13.670;2023-07-31T14:44:56;2.40;;;2.03;;
19617;SDS011;9956;51.006;13.670;2023-07-31T14:49:56;5.15;;;2.47;;
19617;SDS011;9956;51.006;13.670;2023-07-31T14:54:57;3.00;;;2.30;;
19617;SDS011;9956;51.006;13.670;2023-07-31T14:59:57;5.25;;;2.60;;
19617;SDS011;9956;51.006;13.670;2023-07-31T15:04:58;2.78;;;2.00;;
19617;SDS011;9956;51.006;13.670;2023-07-31T15:09:58;3.63;;;2.30;;
19617;SDS011;9956;51.006;13.670;2023-07-31T15:14:59;4.55;;;2.30;;
19617;SDS011;9956;51.006;13.670;2023-07-31T15:19:59;3.10;;;2.13;;
19617;SDS011;9956;51.006;13.670;2023-07-31T15:25:00;4.45;;;1.85;;
19617;SDS011;9956;51.006;13.670;2023-07-31T15:30:00;2.78;;;2.03;;
19617;SDS011;9956;51.006;13.670;2023-07-31T15:35:05;4.55;;;2.55;;
19617;SDS011;9956;51.006;13.670;2023-07-31T15:40:06;4.05;;;2.42;;
19617;SDS011;9956;51.006;13.670;2023-07-31T15:45:07;3.40;;;2.20;;
19617;SDS011;9956;51.006;13.670;2023-07-31T15:50:13;4.57;;;2.03;;
19617;SDS011;9956;51.006;13.670;2023-07-31T15:55:13;2.83;;;2.22;;
19617;SDS011;9956;51.006;13.670;2023-07-31T16:00:14;3.22;;;2.13;;
19617;SDS011;9956;51.006;13.670;2023-07-31T16:05:14;3.50;;;1.95;;
19617;SDS011;9956;51.006;13.670;2023-07-31T16:10:15;2.40;;;2.10;;
19617;SDS011;9956;51.006;13.670;2023-07-31T16:15:15;4.90;;;2.20;;
19617;SDS011;9956;51.006;13.670;2023-07-31T16:20:16;3.15;;;2.22;;
19617;SDS011;9956;51.006;13.670;2023-07-31T16:25:17;2.85;;;2.33;;
19617;SDS011;9956;51.006;13.670;2023-07-31T16:30:17;2.90;;;2.33;;
19617;SDS011;9956;51.006;13.670;2023-07-31T16:35:18;3.88;;;2.28;;
19617;SDS011;9956;51.006;13.670;2023-07-31T16:40:18;4.82;;;2.72;;
19617;SDS011;9956;51.006;13.670;2023-07-31T16:45:19;4.00;;;2.20;;
19617;SDS011;9956;51.006;13.670;2023-07-31T16:50:19;3.72;;;2.50;;
19617;SDS011;9956;51.006;13.670;2023-07-31T16:55:20;3.70;;;2.47;;
19617;SDS011;9956;51.006;13.670;2023-07-31T17:00:20;3.70;;;2.60;;
19617;SDS011;9956;51.006;13.670;2023-07-31T17:05:21;3.97;;;2.40;;
19617;SDS011;9956;51.006;13.670;2023-07-31T17:10:22;4.53;;;2.30;;
19617;SDS011;9956;51.006;13.670;2023-07-31T17:15:22;3.53;;;2.65;;
19617;SDS011;9956;51.006;13.670;2023-07-31T17:20:23;4.40;;;2.53;;
19617;SDS011;9956;51.006;13.670;2023-07-31T17:25:24;7.53;;;2.85;;
19617;SDS011;9956;51.006;13.670;2023-07-31T17:30:24;6.82;;;2.60;;
19617;SDS011;9956;51.006;13.670;2023-07-31T17:35:25;5.88;;;2.67;;
19617;SDS011;9956;51.006;13.670;2023-07-31T17:40:26;3.25;;;2.45;;
19617;SDS011;9956;51.006;13.670;2023-07-31T17:45:27;4.18;;;2.17;;
19617;SDS011;9956;51.006;13.670;2023-07-31T17:50:28;3.78;;;2.38;;
19617;SDS011;9956;51.006;13.670;2023-07-31T17:55:29;4.10;;;2.83;;
19617;SDS011;9956;51.006;13.670;2023-07-31T18:00:29;4.22;;;2.53;;
19617;SDS011;9956;51.006;13.670;2023-07-31T18:05:31;5.22;;;3.13;;
19617;SDS011;9956;51.006;13.670;2023-07-31T18:10:33;5.47;;;3.08;;
19617;SDS011;9956;51.006;13.670;2023-07-31T18:15:34;4.45;;;3.00;;
19617;SDS011;9956;51.006;13.670;2023-07-31T18:20:35;5.13;;;2.78;;
19617;SDS011;9956;51.006;13.670;2023-07-31T18:25:36;3.55;;;2.47;;
19617;SDS011;9956;51.006;13.670;2023-07-31T18:30:36;5.45;;;2.80;;
19617;SDS011;9956;51.006;13.670;2023-07-31T18:35:37;3.80;;;2.72;;
19617;SDS011;9956;51.006;13.670;2023-07-31T18:40:38;3.83;;;2.42;;
19617;SDS011;9956;51.006;13.670;2023-07-31T18:45:39;4.55;;;2.25;;
19617;SDS011;9956;51.006;13.670;2023-07-31T18:50:40;3.95;;;2.38;;
19617;SDS011;9956;51.006;13.670;2023-07-31T18:55:42;5.88;;;2.75;;
19617;SDS011;9956;51.006;13.670;2023-07-31T19:00:43;5.88;;;2.60;;
19617;SDS011;9956;51.006;13.670;2023-07-31T19:05:44;4.25;;;2.70;;
19617;SDS011;9956;51.006;13.670;2023-07-31T19:10:44;3.25;;;2.50;;
19617;SDS011;9956;51.006;13.670;2023-07-31T19:15:45;5.30;;;2.85;;
19617;SDS011;9956;51.006;13.670;2023-07-31T19:20:46;4.63;;;2.47;;
19617;SDS011;9956;51.006;13.670;2023-07-31T19:25:46;5.88;;;2.72;;
19617;SDS011;9956;51.006;13.670;2023-07-31T19:30:47;4.32;;;2.45;;
19617;SDS011;9956;51.006;13.670;2023-07-31T19:35:57;3.83;;;2.78;;
19617;SDS011;9956;51.006;13.670;2023-07-31T19:40:58;4.65;;;2.78;;
19617;SDS011;9956;51.006;13.670;2023-07-31T19:46:00;3.95;;;2.97;;
19617;SDS011;9956;51.006;13.670;2023-07-31T19:51:01;8.63;;;3.10;;
19617;SDS011;9956;51.006;13.670;2023-07-31T19:56:01;4.82;;;3.10;;
19617;SDS011;9956;51.006;13.670;2023-07-31T20:01:03;4.72;;;3.25;;
19617;SDS011;9956;51.006;13.670;2023-07-31T20:06:03;3.72;;;2.63;;
19617;SDS011;9956;51.006;13.670;2023-07-31T20:11:04;5.97;;;3.15;;
19617;SDS011;9956;51.006;13.670;2023-07-31T20:16:04;7.80;;;2.97;;
19617;SDS011;9956;51.006;13.670;2023-07-31T20:21:05;4.63;;;2.65;;
19617;SDS011;9956;51.006;13.670;2023-07-31T20:26:05;3.55;;;2.55;;
19617;SDS011;9956;51.006;13.670;2023-07-31T20:31:06;5.45;;;3.00;;
19617;SDS011;9956;51.006;13.670;2023-07-31T20:36:06;3.95;;;2.90;;
19617;SDS011;9956;51.006;13.670;2023-07-31T20:41:09;6.60;;;3.55;;
19617;SDS011;9956;51.006;13.670;2023-07-31T20:46:10;7.15;;;3.35;;
19617;SDS011;9956;51.006;13.670;2023-07-31T20:51:11;4.97;;;3.05;;
19617;SDS011;9956;51.006;13.670;2023-07-31T20:56:11;5.22;;;3.05;;
19617;SDS011;9956;51.006;13.670;2023-07-31T21:01:12;7.20;;;3.30;;
19617;SDS011;9956;51.006;13.670;2023-07-31T21:06:12;4.30;;;3.22;;
19617;SDS011;9956;51.006;13.670;2023-07-31T21:11:16;3.83;;;3.00;;
19617;SDS011;9956;51.006;13.670;2023-07-31T21:16:16;5.30;;;2.58;;
19617;SDS011;9956;51.006;13.670;2023-07-31T21:21:18;4.20;;;2.92;;
19617;SDS011;9956;51.006;13.670;2023-07-31T21:26:18;5.25;;;2.95;;
19617;SDS011;9956;51.006;13.670;2023-07-31T21:31:19;5.57;;;3.40;;
19617;SDS011;9956;51.006;13.670;2023-07-31T21:36:19;5.00;;;2.95;;
19617;SDS011;9956;51.006;13.670;2023-07-31T21:41:20;4.50;;;3.00;;
19617;SDS011;9956;51.006;13.670;2023-07-31T21:46:20;4.03;;;2.67;;
19617;SDS011;9956;51.006;13.670;2023-07-31T21:51:21;4.10;;;2.78;;
19617;SDS011;9956;51.006;13.670;2023-07-31T21:56:21;7.07;;;3.55;;
19617;SDS011;9956;51.006;13.670;2023-07-31T22:01:22;5.72;;;3.20;;
19617;SDS011;9956;51.006;13.670;2023-07-31T22:06:22;5.55;;;2.72;;
19617;SDS011;9956;51.006;13.670;2023-07-31T22:11:23;8.00;;;2.67;;
19617;SDS011;9956;51.006;13.670;2023-07-31T22:16:23;5.82;;;2.90;;
19617;SDS011;9956;51.006;13.670;2023-07-31T22:21:24;7.07;;;3.25;;
19617;SDS011;9956;51.006;13.670;2023-07-31T22:26:24;5.18;;;2.85;;
19617;SDS011;9956;51.006;13.670;2023-07-31T22:31:24;4.57;;;2.90;;
19617;SDS011;9956;51.006;13.670;2023-07-31T22:36:25;5.60;;;3.20;;
19617;SDS011;9956;51.006;13.670;2023-07-31T22:41:25;5.95;;;2.83;;
19617;SDS011;9956;51.006;13.670;2023-07-31T22:46:26;6.55;;;3.30;;
19617;SDS011;9956;51.006;13.670;2023-07-31T22:51:26;4.68;;;3.10;;
19617;SDS011;9956;51.006;13.670;2023-07-31T22:56:27;5.68;;;3.33;;
19617;SDS011;9956;51.006;13.670;2023-07-31T23:01:30;4.53;;;3.13;;
19617;SDS011;9956;51.006;13.670;2023-07-31T23:06:31;4.10;;;2.70;;
19617;SDS011;9956;51.006;13.670;2023-07-31T23:11:31;3.90;;;2.55;;
19617;SDS011;9956;51.006;13.670;2023-07-31T23:16:31;5.25;;;2.92;;
19617;SDS011;9956;51.006;13.670;2023-07-31T23:21:32;5.78;;;3.28;;
19617;SDS011;9956;51.006;13.670;2023-07-31T23:26:33;4.13;;;3.03;;
19617;SDS011;9956;51.006;13.670;2023-07-31T23:31:33;4.97;;;3.20;;
19617;SDS011;9956;51.006;13.670;2023-07-31T23:36:33;3.67;;;3.25;;
19617;SDS011;9956;51.006;13.670;2023-07-31T23:41:34;4.53;;;2.88;;
19617;SDS011;9956;51.006;13.670;2023-07-31T23:46:34;5.30;;;3.10;;
19617;SDS011;9956;51.006;13.670;2023-07-31T23:51:35;6.05;;;3.42;;
19617;SDS011;9956;51.006;13.670;2023-07-31T23:56:35;7.15;;;3.92;;
